createdAt,value
2022-08-26T00:02:08.472Z,64.60
2022-08-26T00:04:37.027Z,64.80
2022-08-26T00:07:06.280Z,64.90
2022-08-26T00:09:39.064Z,65.00
2022-08-26T00:12:12.285Z,65.00
2022-08-26T00:14:41.483Z,65.00
2022-08-26T00:17:11.769Z,65.00
2022-08-26T00:19:40.085Z,65.10
2022-08-26T00:22:08.523Z,65.20
2022-08-26T00:24:36.730Z,65.20
2022-08-26T00:27:06.345Z,65.20
2022-08-26T00:29:37.746Z,65.20
2022-08-26T00:32:06.725Z,65.30
2022-08-26T00:34:35.248Z,65.50
2022-08-26T00:37:03.452Z,65.40
2022-08-26T00:39:31.813Z,65.50
2022-08-26T00:42:00.616Z,65.50
2022-08-26T00:44:30.827Z,65.50
2022-08-26T00:47:07.029Z,65.60
2022-08-26T00:49:39.568Z,65.70
2022-08-26T00:52:13.186Z,65.70
2022-08-26T00:54:46.990Z,65.80
2022-08-26T00:57:17.791Z,65.80
2022-08-26T00:59:48.217Z,65.80
2022-08-26T01:02:21.327Z,65.80
2022-08-26T01:04:55.521Z,65.80
2022-08-26T01:07:24.859Z,65.90
2022-08-26T01:09:55.473Z,65.90
2022-08-26T01:12:24.883Z,65.90
2022-08-26T01:14:53.537Z,66.00
2022-08-26T01:17:22.925Z,66.10
2022-08-26T01:19:53.897Z,66.00
2022-08-26T01:22:28.213Z,66.00
2022-08-26T01:24:59.177Z,66.00
2022-08-26T01:27:32.477Z,66.10
2022-08-26T01:30:02.732Z,66.10
2022-08-26T01:32:32.767Z,66.00
2022-08-26T01:35:02.115Z,66.20
2022-08-26T01:37:39.032Z,66.20
2022-08-26T01:40:21.662Z,66.30
2022-08-26T01:42:50.277Z,66.30
2022-08-26T01:45:22.621Z,66.20
2022-08-26T01:47:56.592Z,66.20
2022-08-26T01:50:30.635Z,66.30
2022-08-26T01:53:05.723Z,66.30
2022-08-26T01:55:36.789Z,66.40
2022-08-26T01:58:07.350Z,66.40
2022-08-26T02:00:36.647Z,66.40
2022-08-26T02:03:18.795Z,66.50
2022-08-26T02:05:51.399Z,66.60
2022-08-26T02:08:24.576Z,66.60
2022-08-26T02:10:55.412Z,66.60
2022-08-26T02:13:27.541Z,66.50
2022-08-26T02:15:56.298Z,66.60
2022-08-26T02:18:25.843Z,66.60
2022-08-26T02:20:55.273Z,66.60
2022-08-26T02:23:25.199Z,66.60
2022-08-26T02:25:59.013Z,66.70
2022-08-26T02:28:31.012Z,66.50
2022-08-26T02:30:59.079Z,66.70
2022-08-26T02:33:29.359Z,66.60
2022-08-26T02:35:57.649Z,66.70
2022-08-26T02:38:27.293Z,66.70
2022-08-26T02:40:56.645Z,66.70
2022-08-26T02:43:32.657Z,66.80
2022-08-26T02:46:02.523Z,66.80
2022-08-26T02:48:31.222Z,66.80
2022-08-26T02:51:00.351Z,66.90
2022-08-26T02:53:28.284Z,66.90
2022-08-26T02:56:01.683Z,66.90
2022-08-26T02:58:31.942Z,66.90
2022-08-26T03:01:00.007Z,66.90
2022-08-26T03:03:30.186Z,66.90
2022-08-26T03:05:59.120Z,66.90
2022-08-26T03:08:27.084Z,66.90
2022-08-26T03:10:56.914Z,67.00
2022-08-26T03:13:26.336Z,67.00
2022-08-26T03:15:55.209Z,67.00
2022-08-26T03:18:29.251Z,67.10
2022-08-26T03:20:57.276Z,67.10
2022-08-26T03:23:26.180Z,67.10
2022-08-26T03:25:54.812Z,67.10
2022-08-26T03:28:24.090Z,67.20
2022-08-26T03:30:57.053Z,67.30
2022-08-26T03:33:26.058Z,67.20
2022-08-26T03:35:55.853Z,67.20
2022-08-26T03:38:26.083Z,67.20
2022-08-26T03:40:55.551Z,67.30
2022-08-26T03:43:26.754Z,67.30
2022-08-26T03:45:56.117Z,68.10
2022-08-26T03:48:25.205Z,67.30
2022-08-26T03:50:53.153Z,67.30
2022-08-26T03:53:21.483Z,67.40
2022-08-26T03:55:51.893Z,67.40
2022-08-26T03:58:20.958Z,67.40
2022-08-26T04:00:49.269Z,67.50
2022-08-26T04:03:38.876Z,67.50
2022-08-26T04:06:09.748Z,67.50
2022-08-26T04:08:38.122Z,67.50
2022-08-26T04:11:17.064Z,67.60
2022-08-26T04:13:45.460Z,67.60
2022-08-26T04:16:13.722Z,67.60
2022-08-26T04:18:46.826Z,67.60
2022-08-26T04:21:15.527Z,67.60
2022-08-26T04:23:47.260Z,67.70
2022-08-26T04:26:16.735Z,67.70
2022-08-26T04:28:44.962Z,67.70
2022-08-26T04:31:16.026Z,67.70
2022-08-26T04:33:47.518Z,67.70
2022-08-26T04:36:19.958Z,67.70
2022-08-26T04:38:48.669Z,67.70
2022-08-26T04:41:16.991Z,67.60
2022-08-26T04:43:46.517Z,67.50
2022-08-26T04:46:17.740Z,67.70
2022-08-26T04:48:51.100Z,67.60
2022-08-26T04:51:27.284Z,67.60
2022-08-26T04:53:57.513Z,67.60
2022-08-26T04:56:41.563Z,67.60
2022-08-26T04:59:17.019Z,67.60
2022-08-26T05:01:46.782Z,67.70
2022-08-26T05:04:21.377Z,67.70
2022-08-26T05:07:02.305Z,67.70
2022-08-26T05:09:30.905Z,67.70
2022-08-26T05:12:00.751Z,67.60
2022-08-26T05:14:30.053Z,67.70
2022-08-26T05:16:58.170Z,67.70
2022-08-26T05:19:29.068Z,67.70
2022-08-26T05:24:39.311Z,67.60
2022-08-26T05:27:11.803Z,67.70
2022-08-26T05:29:43.642Z,67.60
2022-08-26T05:32:21.811Z,67.60
2022-08-26T05:34:55.404Z,67.60
2022-08-26T05:37:25.722Z,67.60
2022-08-26T05:39:53.794Z,67.40
2022-08-26T05:42:22.294Z,67.40
2022-08-26T05:44:57.251Z,67.30
2022-08-26T05:47:26.422Z,67.40
2022-08-26T05:49:59.702Z,67.40
2022-08-26T05:52:27.941Z,67.40
2022-08-26T05:54:58.115Z,67.30
2022-08-26T05:57:26.059Z,67.30
2022-08-26T05:59:53.925Z,67.50
2022-08-26T06:02:22.074Z,67.40
2022-08-26T06:04:50.705Z,67.40
2022-08-26T06:07:42.053Z,67.40
2022-08-26T06:10:32.659Z,67.30
2022-08-26T06:13:09.327Z,67.30
2022-08-26T06:15:45.850Z,67.30
2022-08-26T06:18:15.172Z,67.20
2022-08-26T06:20:54.571Z,67.10
2022-08-26T06:23:47.272Z,67.30
2022-08-26T06:26:16.419Z,67.20
2022-08-26T06:28:45.580Z,67.20
2022-08-26T06:31:14.087Z,67.10
2022-08-26T06:33:44.136Z,67.90
2022-08-26T06:36:17.302Z,67.20
2022-08-26T06:38:48.661Z,67.30
2022-08-26T06:41:20.281Z,67.40
2022-08-26T06:43:48.844Z,67.40
2022-08-26T06:46:21.643Z,67.40
2022-08-26T06:48:50.002Z,67.20
2022-08-26T06:51:20.486Z,67.40
2022-08-26T06:53:54.560Z,67.30
2022-08-26T06:56:26.780Z,67.40
2022-08-26T06:58:55.892Z,67.40
2022-08-26T07:01:26.016Z,67.40
2022-08-26T07:03:57.137Z,67.50
2022-08-26T07:06:25.854Z,67.60
2022-08-26T07:09:01.583Z,67.70
2022-08-26T07:11:32.365Z,67.70
2022-08-26T07:14:01.132Z,67.80
2022-08-26T07:16:30.956Z,67.70
2022-08-26T07:18:59.306Z,67.80
2022-08-26T07:21:29.524Z,67.80
2022-08-26T07:24:02.963Z,67.70
2022-08-26T07:26:31.869Z,67.70
2022-08-26T07:29:04.317Z,67.70
2022-08-26T07:31:39.396Z,67.60
2022-08-26T07:34:10.919Z,67.50
2022-08-26T07:36:39.113Z,67.50
2022-08-26T07:39:08.448Z,67.60
2022-08-26T07:41:38.984Z,67.60
2022-08-26T07:44:21.348Z,67.70
2022-08-26T07:46:53.258Z,67.90
2022-08-26T07:49:22.726Z,67.90
2022-08-26T07:51:53.062Z,68.00
2022-08-26T07:54:27.153Z,68.00
2022-08-26T07:56:56.262Z,68.10
2022-08-26T07:59:24.765Z,68.00
2022-08-26T08:01:52.826Z,68.00
2022-08-26T08:04:26.058Z,68.00
2022-08-26T08:06:55.161Z,67.90
2022-08-26T08:09:26.622Z,67.90
2022-08-26T08:11:54.965Z,67.90
2022-08-26T08:14:22.782Z,67.90
2022-08-26T08:16:54.732Z,67.80
2022-08-26T08:20:27.116Z,67.80
2022-08-26T08:23:20.537Z,67.90
2022-08-26T08:26:16.882Z,67.70
2022-08-26T08:29:08.111Z,67.50
2022-08-26T08:31:57.090Z,67.70
2022-08-26T08:34:31.345Z,67.10
2022-08-26T08:37:43.474Z,67.20
2022-08-26T08:40:19.250Z,67.30
2022-08-26T08:43:00.258Z,67.60
2022-08-26T08:45:37.753Z,67.40
2022-08-26T08:48:15.874Z,67.20
2022-08-26T08:50:46.470Z,67.20
2022-08-26T08:53:20.388Z,67.30
2022-08-26T08:55:59.323Z,67.30
2022-08-26T08:58:43.700Z,67.20
2022-08-26T09:01:19.554Z,67.20
2022-08-26T09:03:56.548Z,67.20
2022-08-26T09:06:28.579Z,67.30
2022-08-26T09:08:58.533Z,67.30
2022-08-26T09:11:26.488Z,67.20
2022-08-26T09:14:00.353Z,67.20
2022-08-26T09:16:38.163Z,67.10
2022-08-26T09:19:23.039Z,67.20
2022-08-26T09:22:08.835Z,67.30
2022-08-26T09:24:57.379Z,67.50
2022-08-26T09:27:50.507Z,67.30
2022-08-26T09:30:29.446Z,67.20
2022-08-26T09:33:13.032Z,67.10
2022-08-26T09:35:46.721Z,67.10
2022-08-26T09:38:26.709Z,67.20
2022-08-26T09:41:00.639Z,67.20
2022-08-26T09:43:29.659Z,67.30
2022-08-26T09:46:14.355Z,67.40
2022-08-26T09:48:43.586Z,67.40
2022-08-26T09:51:29.405Z,67.30
2022-08-26T09:54:00.955Z,67.20
2022-08-26T09:56:32.173Z,67.10
2022-08-26T09:59:01.285Z,67.30
2022-08-26T10:01:33.752Z,67.30
2022-08-26T10:04:08.748Z,67.50
2022-08-26T10:06:41.573Z,67.70
2022-08-26T10:09:14.197Z,67.70
2022-08-26T10:11:47.712Z,67.70
2022-08-26T10:14:25.394Z,67.40
2022-08-26T10:17:06.988Z,67.20
2022-08-26T10:19:56.486Z,67.10
2022-08-26T10:22:31.539Z,67.10
2022-08-26T10:25:04.437Z,67.00
2022-08-26T10:27:41.464Z,67.00
2022-08-26T10:30:23.932Z,67.00
2022-08-26T10:33:05.627Z,66.90
2022-08-26T10:35:36.269Z,66.70
2022-08-26T10:38:11.928Z,66.60
2022-08-26T10:40:49.093Z,66.30
2022-08-26T10:43:22.185Z,66.20
2022-08-26T10:45:58.070Z,66.00
2022-08-26T10:48:35.454Z,66.10
2022-08-26T10:51:04.815Z,66.20
2022-08-26T10:53:46.152Z,66.20
2022-08-26T10:56:30.655Z,66.40
2022-08-26T10:59:10.419Z,66.40
2022-08-26T11:01:51.107Z,66.50
2022-08-26T11:04:48.454Z,66.60
2022-08-26T11:07:47.326Z,66.60
2022-08-26T11:11:05.238Z,66.50
2022-08-26T11:14:04.604Z,66.60
2022-08-26T11:16:42.965Z,66.50
2022-08-26T11:19:50.834Z,66.50
2022-08-26T11:22:28.486Z,66.40
2022-08-26T11:25:12.385Z,66.30
2022-08-26T11:28:05.262Z,66.30
2022-08-26T11:30:57.822Z,66.30
2022-08-26T11:33:57.944Z,66.20
2022-08-26T11:36:43.251Z,66.00
2022-08-26T11:39:20.124Z,66.10
2022-08-26T11:41:52.785Z,66.00
2022-08-26T11:44:25.867Z,65.90
2022-08-26T11:46:56.733Z,65.80
2022-08-26T11:49:25.911Z,65.70
2022-08-26T11:51:53.884Z,65.80
2022-08-26T11:54:35.527Z,65.60
2022-08-26T11:57:11.752Z,65.60
2022-08-26T11:59:43.457Z,65.50
2022-08-26T12:02:16.760Z,66.20
2022-08-26T12:04:49.503Z,65.70
2022-08-26T12:07:23.845Z,65.50
2022-08-26T12:09:56.604Z,65.60
2022-08-26T12:12:34.041Z,65.80
2022-08-26T12:15:12.983Z,65.90
2022-08-26T12:17:41.886Z,65.90
2022-08-26T12:20:22.091Z,65.90
2022-08-26T12:22:51.126Z,65.70
2022-08-26T12:25:27.151Z,65.70
2022-08-26T12:27:55.216Z,65.80
2022-08-26T12:30:26.013Z,65.70
2022-08-26T12:33:22.187Z,65.70
2022-08-26T12:35:56.547Z,65.70
2022-08-26T12:38:26.592Z,65.70
2022-08-26T12:40:56.936Z,65.80
2022-08-26T12:43:54.960Z,65.80
2022-08-26T12:46:29.551Z,66.60
2022-08-26T12:49:01.287Z,66.00
2022-08-26T12:51:31.156Z,66.20
2022-08-26T12:53:59.606Z,66.30
2022-08-26T12:56:32.450Z,66.40
2022-08-26T12:59:23.052Z,66.50
2022-08-26T13:01:51.954Z,66.70
2022-08-26T13:04:46.106Z,66.70
2022-08-26T13:07:22.776Z,66.80
2022-08-26T13:09:51.983Z,66.80
2022-08-26T13:12:29.400Z,66.90
2022-08-26T13:14:59.733Z,66.90
2022-08-26T13:17:28.490Z,66.90
2022-08-26T13:20:01.295Z,67.00
2022-08-26T13:22:31.513Z,66.90
2022-08-26T13:24:59.441Z,67.00
2022-08-26T13:27:29.044Z,66.90
2022-08-26T13:29:57.845Z,66.90
2022-08-26T13:32:28.259Z,66.90
2022-08-26T13:34:57.983Z,66.80
2022-08-26T13:37:34.532Z,66.80
2022-08-26T13:40:05.061Z,66.70
2022-08-26T13:42:35.553Z,66.70
2022-08-26T13:45:04.346Z,66.70
2022-08-26T13:47:32.434Z,66.70
2022-08-26T13:50:00.617Z,66.70
2022-08-26T13:52:30.826Z,66.70
2022-08-26T13:55:10.241Z,66.70
2022-08-26T13:57:39.690Z,66.70
2022-08-26T14:00:11.094Z,66.70
2022-08-26T14:02:49.189Z,66.70
2022-08-26T14:05:17.452Z,66.70
2022-08-26T14:07:54.404Z,66.60
2022-08-26T14:10:26.271Z,66.50
2022-08-26T14:12:56.550Z,66.40
2022-08-26T14:15:24.726Z,66.50
2022-08-26T14:17:57.637Z,66.50
2022-08-26T14:20:29.063Z,66.60
2022-08-26T14:23:20.428Z,66.70
2022-08-26T14:25:46.936Z,66.70
2022-08-26T14:28:19.514Z,66.70
2022-08-26T14:30:53.922Z,66.80
2022-08-26T14:33:26.658Z,66.70
2022-08-26T14:36:14.548Z,66.70
2022-08-26T14:38:42.384Z,66.60
2022-08-26T14:41:11.101Z,66.60
2022-08-26T14:43:46.706Z,66.70
2022-08-26T14:46:15.581Z,66.60
2022-08-26T14:48:46.253Z,66.60
2022-08-26T14:51:14.143Z,66.50
2022-08-26T14:53:59.493Z,66.50
2022-08-26T14:56:27.959Z,67.30
2022-08-26T14:58:57.056Z,66.50
2022-08-26T15:01:28.040Z,66.50
2022-08-26T15:03:59.138Z,66.50
2022-08-26T15:06:29.031Z,66.50
2022-08-26T15:08:57.003Z,66.50
2022-08-26T15:11:25.132Z,66.50
2022-08-26T15:13:52.989Z,66.70
2022-08-26T15:16:22.790Z,66.80
2022-08-26T15:18:51.978Z,66.90
2022-08-26T15:21:22.394Z,66.80
2022-08-26T15:23:51.807Z,66.70
2022-08-26T15:26:20.290Z,66.60
2022-08-26T15:28:48.467Z,66.60
2022-08-26T15:31:17.009Z,66.40
2022-08-26T15:33:47.095Z,66.40
2022-08-26T15:36:18.023Z,66.40
2022-08-26T15:38:48.836Z,66.30
2022-08-26T15:41:16.696Z,66.30
2022-08-26T15:43:44.462Z,66.30
2022-08-26T15:46:13.002Z,66.30
2022-08-26T15:48:41.130Z,66.30
2022-08-26T15:51:21.069Z,66.40
2022-08-26T15:53:51.196Z,66.40
2022-08-26T15:56:19.417Z,66.40
2022-08-26T15:58:47.364Z,66.40
2022-08-26T16:01:18.182Z,66.30
2022-08-26T16:03:55.747Z,66.20
2022-08-26T16:06:28.422Z,66.10
2022-08-26T16:08:57.167Z,66.10
2022-08-26T16:11:26.901Z,66.00
2022-08-26T16:13:55.065Z,66.00
2022-08-26T16:16:23.263Z,66.00
2022-08-26T16:18:51.517Z,65.90
2022-08-26T16:21:22.142Z,66.00
2022-08-26T16:23:52.377Z,66.00
2022-08-26T16:26:25.948Z,66.00
2022-08-26T16:28:53.969Z,66.00
2022-08-26T16:31:22.557Z,65.90
2022-08-26T16:33:51.319Z,66.00
2022-08-26T16:36:19.863Z,66.00
2022-08-26T16:38:49.984Z,66.00
2022-08-26T16:41:19.346Z,66.10
2022-08-26T16:43:47.419Z,66.00
2022-08-26T16:46:16.325Z,66.10
2022-08-26T16:48:45.158Z,66.30
2022-08-26T16:51:17.200Z,66.40
2022-08-26T16:53:46.222Z,66.60
2022-08-26T16:56:14.989Z,66.80
2022-08-26T16:58:44.514Z,66.90
2022-08-26T17:01:12.797Z,67.10
2022-08-26T17:03:40.732Z,67.30
2022-08-26T17:06:09.735Z,67.40
2022-08-26T17:08:38.419Z,67.60
2022-08-26T17:11:06.496Z,67.60
2022-08-26T17:13:36.106Z,67.60
2022-08-26T17:16:07.453Z,67.50
2022-08-26T17:18:38.843Z,67.40
2022-08-26T17:21:10.005Z,67.30
2022-08-26T17:23:38.732Z,67.20
2022-08-26T17:26:06.958Z,67.30
2022-08-26T17:28:34.863Z,67.20
2022-08-26T17:31:03.307Z,67.20
2022-08-26T17:33:32.757Z,67.30
2022-08-26T17:36:01.635Z,67.30
2022-08-26T17:38:29.699Z,67.30
2022-08-26T17:40:58.031Z,67.10
2022-08-26T17:43:26.647Z,67.60
2022-08-26T17:45:58.897Z,67.90
2022-08-26T17:48:40.244Z,67.70
2022-08-26T17:51:10.086Z,68.00
2022-08-26T17:53:38.185Z,68.10
2022-08-26T17:56:08.799Z,68.20
2022-08-26T17:58:37.202Z,68.30
2022-08-26T18:01:06.475Z,68.30
2022-08-26T18:03:35.157Z,68.40
2022-08-26T18:06:09.826Z,68.50
2022-08-26T18:08:37.904Z,68.50
2022-08-26T18:11:09.855Z,68.70
2022-08-26T18:13:37.732Z,68.60
2022-08-26T18:16:13.930Z,68.50
2022-08-26T18:18:42.177Z,68.60
2022-08-26T18:21:16.605Z,68.60
2022-08-26T18:23:45.417Z,68.50
2022-08-26T18:26:20.169Z,68.40
2022-08-26T18:28:48.401Z,68.50
2022-08-26T18:31:18.662Z,68.40
2022-08-26T18:33:46.992Z,68.40
2022-08-26T18:36:23.053Z,68.40
2022-08-26T18:38:52.657Z,68.40
2022-08-26T18:41:26.082Z,68.40
2022-08-26T18:43:54.663Z,68.20
2022-08-26T18:46:26.132Z,68.20
2022-08-26T18:48:54.916Z,68.30
2022-08-26T18:51:26.271Z,68.30
2022-08-26T18:53:54.444Z,68.20
2022-08-26T18:56:22.433Z,68.10
2022-08-26T18:58:50.595Z,68.20
2022-08-26T19:01:24.281Z,68.30
2022-08-26T19:03:54.605Z,68.30
2022-08-26T19:06:26.193Z,68.40
2022-08-26T19:08:54.629Z,68.40
2022-08-26T19:11:31.657Z,68.40
2022-08-26T19:14:10.825Z,68.40
2022-08-26T19:16:41.282Z,68.40
2022-08-26T19:19:09.182Z,68.40
2022-08-26T19:21:39.005Z,68.40
2022-08-26T19:24:09.327Z,69.20
2022-08-26T19:26:38.942Z,68.50
2022-08-26T19:29:10.414Z,68.60
2022-08-26T19:31:38.298Z,68.70
2022-08-26T19:34:09.951Z,68.80
2022-08-26T19:36:43.101Z,68.90
2022-08-26T19:39:16.462Z,68.90
2022-08-26T19:41:44.420Z,69.00
2022-08-26T19:44:38.888Z,69.00
2022-08-26T19:47:08.709Z,69.10
2022-08-26T19:49:36.607Z,69.20
2022-08-26T19:52:07.125Z,69.10
2022-08-26T19:54:36.174Z,69.00
2022-08-26T19:57:06.705Z,69.10
2022-08-26T19:59:36.205Z,69.10
2022-08-26T20:02:08.488Z,69.00
2022-08-26T20:04:38.945Z,69.00
2022-08-26T20:07:09.157Z,68.90
2022-08-26T20:09:37.525Z,68.90
2022-08-26T20:12:07.013Z,68.90
2022-08-26T20:14:36.772Z,69.00
2022-08-26T20:17:05.319Z,69.00
2022-08-26T20:19:51.545Z,69.00
2022-08-26T20:22:22.787Z,69.00
2022-08-26T20:24:51.588Z,69.00
2022-08-26T20:27:27.389Z,69.00
2022-08-26T20:30:07.690Z,69.00
2022-08-26T20:32:36.275Z,69.00
2022-08-26T20:35:05.392Z,69.00
2022-08-26T20:37:34.659Z,69.00
2022-08-26T20:40:03.038Z,69.00
2022-08-26T20:42:30.835Z,69.10
2022-08-26T20:44:58.680Z,69.10
2022-08-26T20:47:26.493Z,69.00
2022-08-26T20:50:06.307Z,69.00
2022-08-26T20:52:35.471Z,69.00
2022-08-26T20:55:03.522Z,69.00
2022-08-26T20:57:31.452Z,68.90
2022-08-26T20:59:59.280Z,68.90
2022-08-26T21:02:28.096Z,68.90
2022-08-26T21:04:56.041Z,68.90
2022-08-26T21:07:23.919Z,69.00
2022-08-26T21:09:53.090Z,69.10
2022-08-26T21:12:23.372Z,69.10
2022-08-26T21:14:51.401Z,69.20
2022-08-26T21:17:19.369Z,69.20
2022-08-26T21:19:47.180Z,69.30
2022-08-26T21:22:15.071Z,69.30
2022-08-26T21:32:50.551Z,69.30
2022-08-26T21:35:19.792Z,69.20
2022-08-26T21:37:47.566Z,69.30
2022-08-26T21:40:15.499Z,69.30
2022-08-26T21:42:43.308Z,69.20
2022-08-26T21:45:11.859Z,69.20
2022-08-26T21:47:40.520Z,69.30
2022-08-26T21:50:10.672Z,69.20
2022-08-26T21:52:39.299Z,70.00
2022-08-26T21:55:09.055Z,69.20
2022-08-26T21:57:39.485Z,69.30
2022-08-26T22:00:10.022Z,69.30
2022-08-26T22:02:37.914Z,69.40
2022-08-26T22:05:06.331Z,69.50
2022-08-26T22:07:37.479Z,69.50
2022-08-26T22:10:05.892Z,69.50
2022-08-26T22:12:33.761Z,69.50
2022-08-26T22:15:02.626Z,69.40
2022-08-26T22:17:30.609Z,69.40
2022-08-26T22:19:58.376Z,69.50
2022-08-26T22:22:28.573Z,69.50
2022-08-26T22:24:57.702Z,69.60
2022-08-26T22:27:26.281Z,69.60
2022-08-26T22:29:54.021Z,69.60
2022-08-26T22:32:22.826Z,69.60
2022-08-26T22:34:50.620Z,69.80
2022-08-26T22:37:18.410Z,69.70
2022-08-26T22:39:46.163Z,69.80
2022-08-26T22:42:15.476Z,69.80
2022-08-26T22:44:43.832Z,69.70
2022-08-26T22:47:11.651Z,69.70
2022-08-26T22:49:39.579Z,69.70
2022-08-26T22:52:07.358Z,69.80
2022-08-26T22:54:35.130Z,69.70
2022-08-26T22:57:02.898Z,69.70
2022-08-26T22:59:32.070Z,69.80
2022-08-26T23:01:59.839Z,69.90
2022-08-26T23:04:27.970Z,69.90
2022-08-26T23:06:55.742Z,69.90
2022-08-26T23:09:26.123Z,69.90
2022-08-26T23:11:54.881Z,69.90
2022-08-26T23:14:23.707Z,70.60
2022-08-26T23:16:53.474Z,69.80
2022-08-26T23:19:23.272Z,69.80
2022-08-26T23:21:51.192Z,69.80
2022-08-26T23:24:19.659Z,69.80
2022-08-26T23:26:47.805Z,69.70
2022-08-26T23:29:16.241Z,69.80
2022-08-26T23:31:44.370Z,69.90
2022-08-26T23:34:32.175Z,69.90
2022-08-26T23:37:01.242Z,69.90
2022-08-26T23:39:29.195Z,69.90
2022-08-26T23:41:57.964Z,70.00
2022-08-26T23:44:29.168Z,69.90
2022-08-26T23:46:57.524Z,70.00
2022-08-26T23:49:26.899Z,70.00
2022-08-26T23:52:12.950Z,70.00
2022-08-26T23:54:40.905Z,70.10
2022-08-26T23:57:09.833Z,70.10
2022-08-26T23:59:38.567Z,70.10
